sensor_id;sensor_type;location;lat;lon;timestamp;pressure;altitude;pressure_sealevel;temperature;humidity
74722;BME280;63470;49.826;6.740;2024-03-02T00:02:30;98798.32;;;11.09;71.24
74722;BME280;63470;49.826;6.740;2024-03-02T00:04:59;98802.28;;;11.13;71.21
74722;BME280;63470;49.826;6.740;2024-03-02T00:07:30;98798.48;;;11.13;71.22
74722;BME280;63470;49.826;6.740;2024-03-02T00:10:01;98796.21;;;11.11;71.28
74722;BME280;63470;49.826;6.740;2024-03-02T00:12:33;98784.14;;;11.10;71.34
74722;BME280;63470;49.826;6.740;2024-03-02T00:17:29;98787.70;;;11.12;71.28
74722;BME280;63470;49.826;6.740;2024-03-02T00:19:59;98791.91;;;11.10;71.33
74722;BME280;63470;49.826;6.740;2024-03-02T00:22:30;98787.55;;;11.07;71.40
74722;BME280;63470;49.826;6.740;2024-03-02T00:25:01;98792.34;;;11.07;71.42
74722;BME280;63470;49.826;6.740;2024-03-02T00:27:31;98801.65;;;11.08;71.43
74722;BME280;63470;49.826;6.740;2024-03-02T00:30:06;98794.78;;;11.10;71.40
74722;BME280;63470;49.826;6.740;2024-03-02T00:32:34;98794.80;;;11.10;71.42
74722;BME280;63470;49.826;6.740;2024-03-02T00:35:05;98794.45;;;11.10;71.45
74722;BME280;63470;49.826;6.740;2024-03-02T00:37:34;98793.22;;;11.12;71.42
74722;BME280;63470;49.826;6.740;2024-03-02T00:40:08;98794.39;;;11.11;71.42
74722;BME280;63470;49.826;6.740;2024-03-02T00:42:36;98796.70;;;11.11;71.41
74722;BME280;63470;49.826;6.740;2024-03-02T00:45:07;98802.36;;;11.11;71.41
74722;BME280;63470;49.826;6.740;2024-03-02T00:47:39;98798.36;;;11.03;71.41
74722;BME280;63470;49.826;6.740;2024-03-02T00:50:05;98806.20;;;10.93;71.48
74722;BME280;63470;49.826;6.740;2024-03-02T00:52:37;98798.92;;;10.82;71.56
74722;BME280;63470;49.826;6.740;2024-03-02T00:55:11;98794.45;;;10.71;71.68
74722;BME280;63470;49.826;6.740;2024-03-02T00:57:40;98798.49;;;10.65;71.76
74722;BME280;63470;49.826;6.740;2024-03-02T01:00:11;98797.74;;;10.66;71.82
74722;BME280;63470;49.826;6.740;2024-03-02T01:02:36;98801.53;;;10.70;71.77
74722;BME280;63470;49.826;6.740;2024-03-02T01:05:10;98793.36;;;10.74;71.69
74722;BME280;63470;49.826;6.740;2024-03-02T01:07:40;98791.75;;;10.77;71.64
74722;BME280;63470;49.826;6.740;2024-03-02T01:10:13;98789.37;;;10.77;71.63
74722;BME280;63470;49.826;6.740;2024-03-02T01:12:42;98790.35;;;10.75;71.62
74722;BME280;63470;49.826;6.740;2024-03-02T01:15:09;98798.26;;;10.69;71.64
74722;BME280;63470;49.826;6.740;2024-03-02T01:17:42;98794.62;;;10.65;71.63
74722;BME280;63470;49.826;6.740;2024-03-02T01:20:15;98798.55;;;10.60;71.66
74722;BME280;63470;49.826;6.740;2024-03-02T01:22:41;98798.63;;;10.58;71.72
74722;BME280;63470;49.826;6.740;2024-03-02T01:25:17;98787.36;;;10.59;71.71
74722;BME280;63470;49.826;6.740;2024-03-02T01:27:42;98790.17;;;10.61;71.64
74722;BME280;63470;49.826;6.740;2024-03-02T01:30:17;98790.81;;;10.62;71.57
74722;BME280;63470;49.826;6.740;2024-03-02T01:32:43;98788.23;;;10.62;71.53
74722;BME280;63470;49.826;6.740;2024-03-02T01:35:15;98789.35;;;10.61;71.53
74722;BME280;63470;49.826;6.740;2024-03-02T01:37:49;98789.72;;;10.58;71.57
74722;BME280;63470;49.826;6.740;2024-03-02T01:40:15;98788.00;;;10.58;71.56
74722;BME280;63470;49.826;6.740;2024-03-02T01:42:45;98785.28;;;10.57;71.54
74722;BME280;63470;49.826;6.740;2024-03-02T01:45:19;98780.74;;;10.55;71.54
74722;BME280;63470;49.826;6.740;2024-03-02T01:47:49;98779.16;;;10.54;71.53
74722;BME280;63470;49.826;6.740;2024-03-02T01:50:28;98777.74;;;10.52;71.51
74722;BME280;63470;49.826;6.740;2024-03-02T01:52:51;98779.91;;;10.51;71.51
74722;BME280;63470;49.826;6.740;2024-03-02T01:55:19;98780.56;;;10.52;71.51
74722;BME280;63470;49.826;6.740;2024-03-02T01:57:52;98782.70;;;10.54;71.49
74722;BME280;63470;49.826;6.740;2024-03-02T02:00:23;98775.55;;;10.55;71.47
74722;BME280;63470;49.826;6.740;2024-03-02T02:02:56;98779.51;;;10.57;71.42
74722;BME280;63470;49.826;6.740;2024-03-02T02:05:22;98773.59;;;10.58;71.39
74722;BME280;63470;49.826;6.740;2024-03-02T02:07:52;98779.36;;;10.63;71.31
74722;BME280;63470;49.826;6.740;2024-03-02T02:10:26;98780.61;;;10.65;71.26
74722;BME280;63470;49.826;6.740;2024-03-02T02:12:53;98780.75;;;10.66;71.26
74722;BME280;63470;49.826;6.740;2024-03-02T02:15:35;98773.83;;;10.67;71.21
74722;BME280;63470;49.826;6.740;2024-03-02T02:17:58;98778.62;;;10.69;71.19
74722;BME280;63470;49.826;6.740;2024-03-02T02:20:28;98772.61;;;10.71;71.18
74722;BME280;63470;49.826;6.740;2024-03-02T02:23:02;98776.08;;;10.73;71.15
74722;BME280;63470;49.826;6.740;2024-03-02T02:25:28;98772.69;;;10.73;71.14
74722;BME280;63470;49.826;6.740;2024-03-02T02:27:58;98775.23;;;10.73;71.13
74722;BME280;63470;49.826;6.740;2024-03-02T02:30:30;98783.14;;;10.76;71.12
74722;BME280;63470;49.826;6.740;2024-03-02T02:33:02;98778.38;;;10.77;71.07
74722;BME280;63470;49.826;6.740;2024-03-02T02:35:28;98778.97;;;10.77;71.06
74722;BME280;63470;49.826;6.740;2024-03-02T02:37:58;98778.88;;;10.77;71.06
74722;BME280;63470;49.826;6.740;2024-03-02T02:40:33;98774.73;;;10.78;71.06
74722;BME280;63470;49.826;6.740;2024-03-02T02:43:05;98766.57;;;10.78;71.10
74722;BME280;63470;49.826;6.740;2024-03-02T02:45:29;98770.27;;;10.78;71.12
74722;BME280;63470;49.826;6.740;2024-03-02T02:48:04;98770.69;;;10.78;71.14
74722;BME280;63470;49.826;6.740;2024-03-02T02:50:35;98776.05;;;10.78;71.15
74722;BME280;63470;49.826;6.740;2024-03-02T02:53:05;98765.27;;;10.79;nan
74722;BME280;63470;49.826;6.740;2024-03-02T02:55:31;98766.58;;;10.77;71.18
74722;BME280;63470;49.826;6.740;2024-03-02T02:58:04;98766.31;;;10.76;71.20
74722;BME280;63470;49.826;6.740;2024-03-02T03:00:36;98765.59;;;10.75;71.19
74722;BME280;63470;49.826;6.740;2024-03-02T03:03:07;98768.14;;;10.73;71.20
74722;BME280;63470;49.826;6.740;2024-03-02T03:05:37;98775.82;;;10.73;71.23
74722;BME280;63470;49.826;6.740;2024-03-02T03:08:09;98769.11;;;10.70;71.28
74722;BME280;63470;49.826;6.740;2024-03-02T03:10:34;98771.01;;;10.70;71.26
74722;BME280;63470;49.826;6.740;2024-03-02T03:13:05;98771.25;;;10.68;71.25
74722;BME280;63470;49.826;6.740;2024-03-02T03:15:37;98770.52;;;10.66;71.30
74722;BME280;63470;49.826;6.740;2024-03-02T03:18:10;98768.62;;;10.64;71.32
74722;BME280;63470;49.826;6.740;2024-03-02T03:20:38;98770.70;;;10.61;71.36
74722;BME280;63470;49.826;6.740;2024-03-02T03:23:07;98770.59;;;10.60;71.38
74722;BME280;63470;49.826;6.740;2024-03-02T03:25:37;98769.09;;;10.58;71.35
74722;BME280;63470;49.826;6.740;2024-03-02T03:28:08;98775.29;;;10.56;71.34
74722;BME280;63470;49.826;6.740;2024-03-02T03:30:38;98767.31;;;10.53;71.31
74722;BME280;63470;49.826;6.740;2024-03-02T03:33:10;98769.09;;;10.46;71.36
74722;BME280;63470;49.826;6.740;2024-03-02T03:35:41;98773.02;;;10.38;71.29
74722;BME280;63470;49.826;6.740;2024-03-02T03:38:10;98771.40;;;10.30;71.30
74722;BME280;63470;49.826;6.740;2024-03-02T03:40:44;98773.29;;;10.26;71.36
74722;BME280;63470;49.826;6.740;2024-03-02T03:43:15;98775.02;;;10.26;71.33
74722;BME280;63470;49.826;6.740;2024-03-02T03:45:44;98777.22;;;10.25;71.29
74722;BME280;63470;49.826;6.740;2024-03-02T03:48:16;98780.18;;;10.23;71.30
74722;BME280;63470;49.826;6.740;2024-03-02T03:50:41;98778.80;;;10.20;71.32
74722;BME280;63470;49.826;6.740;2024-03-02T03:53:14;98785.43;;;10.17;71.34
74722;BME280;63470;49.826;6.740;2024-03-02T03:55:43;98788.72;;;10.16;71.31
74722;BME280;63470;49.826;6.740;2024-03-02T03:58:19;98788.38;;;10.14;71.28
74722;BME280;63470;49.826;6.740;2024-03-02T04:00:44;98787.56;;;10.11;71.29
74722;BME280;63470;49.826;6.740;2024-03-02T04:03:17;98789.84;;;10.09;71.26
74722;BME280;63470;49.826;6.740;2024-03-02T04:05:50;98803.50;;;10.07;71.29
74722;BME280;63470;49.826;6.740;2024-03-02T04:08:20;98797.81;;;10.05;71.29
74722;BME280;63470;49.826;6.740;2024-03-02T04:10:48;98803.16;;;10.01;71.32
74722;BME280;63470;49.826;6.740;2024-03-02T04:13:19;98808.16;;;9.97;71.36
74722;BME280;63470;49.826;6.740;2024-03-02T04:15:51;98811.93;;;9.93;71.39
74722;BME280;63470;49.826;6.740;2024-03-02T04:18:19;98816.38;;;9.91;71.38
74722;BME280;63470;49.826;6.740;2024-03-02T04:20:52;98816.62;;;9.89;71.39
74722;BME280;63470;49.826;6.740;2024-03-02T04:23:18;98816.50;;;9.88;71.40
74722;BME280;63470;49.826;6.740;2024-03-02T04:25:53;98818.31;;;9.85;71.36
74722;BME280;63470;49.826;6.740;2024-03-02T04:28:23;98822.92;;;9.83;71.31
74722;BME280;63470;49.826;6.740;2024-03-02T04:30:49;98825.95;;;9.81;71.33
74722;BME280;63470;49.826;6.740;2024-03-02T04:33:23;98825.72;;;9.78;71.38
74722;BME280;63470;49.826;6.740;2024-03-02T04:35:50;98825.55;;;9.76;71.43
74722;BME280;63470;49.826;6.740;2024-03-02T04:38:21;98824.12;;;9.75;71.44
74722;BME280;63470;49.826;6.740;2024-03-02T04:40:56;98830.69;;;9.73;71.41
74722;BME280;63470;49.826;6.740;2024-03-02T04:43:24;98838.61;;;9.72;71.40
74722;BME280;63470;49.826;6.740;2024-03-02T04:45:56;98835.13;;;9.71;71.40
74722;BME280;63470;49.826;6.740;2024-03-02T04:48:22;98842.11;;;9.69;71.37
74722;BME280;63470;49.826;6.740;2024-03-02T04:50:54;98848.38;;;9.66;71.31
74722;BME280;63470;49.826;6.740;2024-03-02T04:53:25;98844.47;;;9.63;71.25
74722;BME280;63470;49.826;6.740;2024-03-02T04:56:16;98850.82;;;9.60;71.24
74722;BME280;63470;49.826;6.740;2024-03-02T04:58:23;98853.09;;;9.56;71.25
74722;BME280;63470;49.826;6.740;2024-03-02T05:00:59;98851.58;;;9.52;71.27
74722;BME280;63470;49.826;6.740;2024-03-02T05:03:28;98848.83;;;9.48;71.32
74722;BME280;63470;49.826;6.740;2024-03-02T05:06:00;98853.02;;;9.44;71.30
74722;BME280;63470;49.826;6.740;2024-03-02T05:08:24;98852.56;;;9.38;71.28
74722;BME280;63470;49.826;6.740;2024-03-02T05:10:57;98856.53;;;9.30;71.31
74722;BME280;63470;49.826;6.740;2024-03-02T05:13:25;98850.89;;;9.23;71.36
74722;BME280;63470;49.826;6.740;2024-03-02T05:15:59;98852.92;;;9.19;71.41
74722;BME280;63470;49.826;6.740;2024-03-02T05:18:32;98853.78;;;9.16;71.39
74722;BME280;63470;49.826;6.740;2024-03-02T05:20:57;98854.42;;;9.14;71.39
74722;BME280;63470;49.826;6.740;2024-03-02T05:23:30;98860.50;;;9.11;71.39
74722;BME280;63470;49.826;6.740;2024-03-02T05:26:01;98859.64;;;9.11;71.37
74722;BME280;63470;49.826;6.740;2024-03-02T05:28:32;98863.27;;;9.13;71.30
74722;BME280;63470;49.826;6.740;2024-03-02T05:31:03;98863.42;;;9.15;71.24
74722;BME280;63470;49.826;6.740;2024-03-02T05:33:33;98867.27;;;9.16;71.18
74722;BME280;63470;49.826;6.740;2024-03-02T05:36:08;98867.20;;;9.18;71.07
74722;BME280;63470;49.826;6.740;2024-03-02T05:38:31;98867.51;;;9.17;71.03
74722;BME280;63470;49.826;6.740;2024-03-02T05:41:02;98873.61;;;9.16;nan
74722;BME280;63470;49.826;6.740;2024-03-02T05:43:33;98873.25;;;9.12;70.91
74722;BME280;63470;49.826;6.740;2024-03-02T05:46:03;98872.34;;;9.04;70.93
74722;BME280;63470;49.826;6.740;2024-03-02T05:48:34;98876.86;;;8.99;71.04
74722;BME280;63470;49.826;6.740;2024-03-02T05:51:04;98870.41;;;8.95;71.12
74722;BME280;63470;49.826;6.740;2024-03-02T05:53:35;98874.57;;;8.93;71.16
74722;BME280;63470;49.826;6.740;2024-03-02T05:56:05;98873.17;;;8.94;71.17
74722;BME280;63470;49.826;6.740;2024-03-02T05:58:59;98874.70;;;8.93;71.23
74722;BME280;63470;49.826;6.740;2024-03-02T06:01:07;98872.14;;;8.89;71.08
74722;BME280;63470;49.826;6.740;2024-03-02T06:03:37;98878.97;;;8.82;71.05
74722;BME280;63470;49.826;6.740;2024-03-02T06:06:08;98875.96;;;8.75;71.12
74722;BME280;63470;49.826;6.740;2024-03-02T06:08:38;98874.54;;;8.68;71.12
74722;BME280;63470;49.826;6.740;2024-03-02T06:11:09;98881.00;;;8.63;71.24
74722;BME280;63470;49.826;6.740;2024-03-02T06:13:39;98884.44;;;8.61;71.31
74722;BME280;63470;49.826;6.740;2024-03-02T06:16:10;98874.37;;;8.60;71.29
74722;BME280;63470;49.826;6.740;2024-03-02T06:18:40;98876.68;;;8.60;71.31
74722;BME280;63470;49.826;6.740;2024-03-02T06:21:13;98871.50;;;8.60;71.33
74722;BME280;63470;49.826;6.740;2024-03-02T06:23:44;98869.52;;;8.60;71.34
74722;BME280;63470;49.826;6.740;2024-03-02T06:26:16;98864.59;;;8.60;71.29
74722;BME280;63470;49.826;6.740;2024-03-02T06:28:42;98870.44;;;8.59;71.31
74722;BME280;63470;49.826;6.740;2024-03-02T06:31:17;98871.42;;;8.59;71.31
74722;BME280;63470;49.826;6.740;2024-03-02T06:33:43;98872.84;;;8.62;71.27
74722;BME280;63470;49.826;6.740;2024-03-02T06:36:18;98883.39;;;8.63;71.23
74722;BME280;63470;49.826;6.740;2024-03-02T06:38:47;98881.37;;;8.65;71.19
74722;BME280;63470;49.826;6.740;2024-03-02T06:41:17;98880.11;;;8.66;71.13
74722;BME280;63470;49.826;6.740;2024-03-02T06:43:48;98885.23;;;8.68;71.08
74722;BME280;63470;49.826;6.740;2024-03-02T06:46:15;98891.06;;;8.68;71.08
74722;BME280;63470;49.826;6.740;2024-03-02T06:48:46;98891.67;;;8.69;71.10
74722;BME280;63470;49.826;6.740;2024-03-02T06:51:21;98886.52;;;8.71;71.07
74722;BME280;63470;49.826;6.740;2024-03-02T06:53:47;98883.92;;;8.73;71.08
74722;BME280;63470;49.826;6.740;2024-03-02T06:56:17;98888.21;;;8.75;71.07
74722;BME280;63470;49.826;6.740;2024-03-02T06:58:53;98886.66;;;8.77;71.02
74722;BME280;63470;49.826;6.740;2024-03-02T07:01:23;98890.06;;;8.79;70.92
74722;BME280;63470;49.826;6.740;2024-03-02T07:03:52;98884.16;;;8.81;70.94
74722;BME280;63470;49.826;6.740;2024-03-02T07:06:19;98884.05;;;8.82;70.88
74722;BME280;63470;49.826;6.740;2024-03-02T07:08:55;98887.05;;;8.84;70.88
74722;BME280;63470;49.826;6.740;2024-03-02T07:11:20;98893.93;;;8.87;70.86
74722;BME280;63470;49.826;6.740;2024-03-02T07:13:51;98891.81;;;8.89;70.76
74722;BME280;63470;49.826;6.740;2024-03-02T07:16:37;98890.95;;;8.93;70.79
74722;BME280;63470;49.826;6.740;2024-03-02T07:18:52;98901.61;;;9.00;70.71
74722;BME280;63470;49.826;6.740;2024-03-02T07:21:23;98899.20;;;9.06;70.67
74722;BME280;63470;49.826;6.740;2024-03-02T07:23:52;98899.61;;;9.13;70.67
74722;BME280;63470;49.826;6.740;2024-03-02T07:26:24;98899.00;;;9.20;70.61
74722;BME280;63470;49.826;6.740;2024-03-02T07:28:53;98898.25;;;9.27;70.53
74722;BME280;63470;49.826;6.740;2024-03-02T07:31:23;98907.86;;;9.36;70.54
74722;BME280;63470;49.826;6.740;2024-03-02T07:33:56;98903.77;;;9.43;70.52
74722;BME280;63470;49.826;6.740;2024-03-02T07:36:25;98900.41;;;9.50;70.51
74722;BME280;63470;49.826;6.740;2024-03-02T07:38:58;98902.00;;;9.59;70.46
74722;BME280;63470;49.826;6.740;2024-03-02T07:41:28;98896.91;;;9.71;70.38
74722;BME280;63470;49.826;6.740;2024-03-02T07:44:01;98897.98;;;9.80;70.25
74722;BME280;63470;49.826;6.740;2024-03-02T07:46:27;98898.34;;;9.89;70.15
74722;BME280;63470;49.826;6.740;2024-03-02T07:48:57;98901.72;;;10.01;70.17
74722;BME280;63470;49.826;6.740;2024-03-02T07:51:30;98893.30;;;10.13;70.07
74722;BME280;63470;49.826;6.740;2024-03-02T07:54:03;98893.95;;;10.25;69.99
74722;BME280;63470;49.826;6.740;2024-03-02T07:56:31;98900.70;;;10.39;69.98
74722;BME280;63470;49.826;6.740;2024-03-02T07:59:02;98900.98;;;10.49;69.90
74722;BME280;63470;49.826;6.740;2024-03-02T08:01:33;98902.33;;;10.57;69.86
74722;BME280;63470;49.826;6.740;2024-03-02T08:04:01;98901.59;;;10.64;69.82
74722;BME280;63470;49.826;6.740;2024-03-02T08:06:31;98901.97;;;10.71;69.73
74722;BME280;63470;49.826;6.740;2024-03-02T08:09:02;98905.35;;;10.69;69.71
74722;BME280;63470;49.826;6.740;2024-03-02T08:11:35;98911.58;;;10.68;69.93
74722;BME280;63470;49.826;6.740;2024-03-02T08:14:04;98910.37;;;10.76;69.94
74722;BME280;63470;49.826;6.740;2024-03-02T08:16:36;98912.25;;;10.87;69.79
74722;BME280;63470;49.826;6.740;2024-03-02T08:19:06;98916.20;;;10.92;69.64
74722;BME280;63470;49.826;6.740;2024-03-02T08:21:36;98911.94;;;11.01;69.70
74722;BME280;63470;49.826;6.740;2024-03-02T08:24:05;98917.55;;;11.16;69.67
74722;BME280;63470;49.826;6.740;2024-03-02T08:26:35;98914.04;;;11.33;69.60
74722;BME280;63470;49.826;6.740;2024-03-02T08:29:05;98908.25;;;11.58;69.52
74722;BME280;63470;49.826;6.740;2024-03-02T08:31:36;98904.73;;;11.95;69.22
74722;BME280;63470;49.826;6.740;2024-03-02T08:34:09;98895.55;;;12.33;68.87
74722;BME280;63470;49.826;6.740;2024-03-02T08:36:42;98887.19;;;12.51;68.78
74722;BME280;63470;49.826;6.740;2024-03-02T08:39:16;98886.78;;;12.91;68.66
74722;BME280;63470;49.826;6.740;2024-03-02T08:41:41;98884.21;;;13.54;68.09
74722;BME280;63470;49.826;6.740;2024-03-02T08:44:09;98892.23;;;14.20;67.76
74722;BME280;63470;49.826;6.740;2024-03-02T08:46:40;98888.20;;;14.55;67.39
74722;BME280;63470;49.826;6.740;2024-03-02T08:49:10;98890.02;;;14.55;67.26
74722;BME280;63470;49.826;6.740;2024-03-02T08:51:41;98884.78;;;14.69;67.21
74722;BME280;63470;49.826;6.740;2024-03-02T08:54:11;98901.23;;;14.92;67.03
74722;BME280;63470;49.826;6.740;2024-03-02T08:56:46;98895.00;;;15.19;67.28
74722;BME280;63470;49.826;6.740;2024-03-02T08:59:12;98897.08;;;15.36;67.29
74722;BME280;63470;49.826;6.740;2024-03-02T09:01:42;98893.05;;;15.19;67.36
74722;BME280;63470;49.826;6.740;2024-03-02T09:04:15;98890.12;;;15.79;67.09
74722;BME280;63470;49.826;6.740;2024-03-02T09:06:47;98880.88;;;16.59;66.77
74722;BME280;63470;49.826;6.740;2024-03-02T09:09:15;98880.84;;;16.79;66.68
74722;BME280;63470;49.826;6.740;2024-03-02T09:11:46;98900.15;;;16.47;66.84
74722;BME280;63470;49.826;6.740;2024-03-02T09:14:15;98906.45;;;15.70;67.50
74722;BME280;63470;49.826;6.740;2024-03-02T09:16:46;98898.05;;;15.06;68.44
74722;BME280;63470;49.826;6.740;2024-03-02T09:19:17;98902.28;;;14.56;68.93
74722;BME280;63470;49.826;6.740;2024-03-02T09:21:46;98903.87;;;14.20;69.28
74722;BME280;63470;49.826;6.740;2024-03-02T09:24:19;98913.03;;;13.89;69.44
74722;BME280;63470;49.826;6.740;2024-03-02T09:26:51;98902.21;;;13.70;69.62
74722;BME280;63470;49.826;6.740;2024-03-02T09:29:20;98900.69;;;13.84;69.40
74722;BME280;63470;49.826;6.740;2024-03-02T09:31:53;98905.52;;;14.28;69.12
74722;BME280;63470;49.826;6.740;2024-03-02T09:34:23;98897.08;;;14.60;69.16
74722;BME280;63470;49.826;6.740;2024-03-02T09:36:52;98897.88;;;15.04;68.92
74722;BME280;63470;49.826;6.740;2024-03-02T09:39:25;98896.29;;;15.05;68.76
74722;BME280;63470;49.826;6.740;2024-03-02T09:41:53;98888.45;;;15.03;68.82
74722;BME280;63470;49.826;6.740;2024-03-02T09:44:23;98889.16;;;14.95;68.92
74722;BME280;63470;49.826;6.740;2024-03-02T09:46:57;98889.12;;;14.74;69.02
74722;BME280;63470;49.826;6.740;2024-03-02T09:49:23;98893.79;;;14.94;68.72
74722;BME280;63470;49.826;6.740;2024-03-02T09:51:53;98888.44;;;15.42;68.32
74722;BME280;63470;49.826;6.740;2024-03-02T09:54:24;98884.54;;;15.51;68.26
74722;BME280;63470;49.826;6.740;2024-03-02T09:56:58;98885.98;;;15.79;68.04
74722;BME280;63470;49.826;6.740;2024-03-02T09:59:25;98884.35;;;15.99;68.18
74722;BME280;63470;49.826;6.740;2024-03-02T10:02:02;98881.70;;;16.03;68.05
74722;BME280;63470;49.826;6.740;2024-03-02T10:04:28;98886.30;;;15.84;68.31
74722;BME280;63470;49.826;6.740;2024-03-02T10:07:13;98876.97;;;15.61;68.34
74722;BME280;63470;49.826;6.740;2024-03-02T10:09:27;98870.24;;;15.24;68.73
74722;BME280;63470;49.826;6.740;2024-03-02T10:12:03;98868.84;;;15.58;68.42
74722;BME280;63470;49.826;6.740;2024-03-02T10:14:28;98862.02;;;16.18;68.21
74722;BME280;63470;49.826;6.740;2024-03-02T10:17:07;98856.02;;;16.93;67.70
74722;BME280;63470;49.826;6.740;2024-03-02T10:19:33;98846.66;;;17.73;67.31
74722;BME280;63470;49.826;6.740;2024-03-02T10:22:03;98848.23;;;17.89;67.06
74722;BME280;63470;49.826;6.740;2024-03-02T10:24:39;98845.38;;;18.29;66.75
74722;BME280;63470;49.826;6.740;2024-03-02T10:27:01;98840.96;;;18.93;66.29
74722;BME280;63470;49.826;6.740;2024-03-02T10:29:32;98846.98;;;18.68;66.63
74722;BME280;63470;49.826;6.740;2024-03-02T10:32:05;98844.22;;;19.01;66.37
74722;BME280;63470;49.826;6.740;2024-03-02T10:34:32;98836.91;;;19.05;66.67
74722;BME280;63470;49.826;6.740;2024-03-02T10:37:03;98839.62;;;18.59;67.04
74722;BME280;63470;49.826;6.740;2024-03-02T10:39:38;98836.14;;;18.25;67.21
74722;BME280;63470;49.826;6.740;2024-03-02T10:42:05;98845.04;;;17.56;67.99
74722;BME280;63470;49.826;6.740;2024-03-02T10:44:36;98852.36;;;17.04;68.35
74722;BME280;63470;49.826;6.740;2024-03-02T10:47:06;98847.95;;;16.67;68.65
74722;BME280;63470;49.826;6.740;2024-03-02T10:49:38;98834.75;;;17.49;68.23
74722;BME280;63470;49.826;6.740;2024-03-02T10:52:06;98835.40;;;18.09;67.71
74722;BME280;63470;49.826;6.740;2024-03-02T10:54:40;98831.95;;;17.59;67.62
74722;BME280;63470;49.826;6.740;2024-03-02T10:57:11;98824.41;;;17.49;67.88
74722;BME280;63470;49.826;6.740;2024-03-02T10:59:52;98820.55;;;17.76;67.56
74722;BME280;63470;49.826;6.740;2024-03-02T11:02:12;98820.16;;;17.77;67.41
74722;BME280;63470;49.826;6.740;2024-03-02T11:04:40;98826.09;;;17.56;67.73
74722;BME280;63470;49.826;6.740;2024-03-02T11:07:11;98820.59;;;17.48;67.58
74722;BME280;63470;49.826;6.740;2024-03-02T11:09:45;98822.30;;;17.38;67.69
74722;BME280;63470;49.826;6.740;2024-03-02T11:12:18;98819.09;;;17.29;68.05
74722;BME280;63470;49.826;6.740;2024-03-02T11:14:44;98814.96;;;17.46;67.87
74722;BME280;63470;49.826;6.740;2024-03-02T11:17:14;98821.16;;;17.56;67.75
74722;BME280;63470;49.826;6.740;2024-03-02T11:19:43;98812.33;;;17.55;67.68
74722;BME280;63470;49.826;6.740;2024-03-02T11:22:14;98805.77;;;17.61;67.81
74722;BME280;63470;49.826;6.740;2024-03-02T11:24:51;98804.80;;;17.88;67.59
74722;BME280;63470;49.826;6.740;2024-03-02T11:27:13;98795.45;;;17.99;67.36
74722;BME280;63470;49.826;6.740;2024-03-02T11:29:44;98794.73;;;17.89;67.37
74722;BME280;63470;49.826;6.740;2024-03-02T11:32:22;98785.19;;;18.05;67.36
74722;BME280;63470;49.826;6.740;2024-03-02T11:34:48;98785.20;;;18.25;67.25
74722;BME280;63470;49.826;6.740;2024-03-02T11:37:16;98778.17;;;18.34;67.37
74722;BME280;63470;49.826;6.740;2024-03-02T11:39:48;98767.06;;;18.43;67.23
74722;BME280;63470;49.826;6.740;2024-03-02T11:42:22;98765.53;;;18.31;67.37
74722;BME280;63470;49.826;6.740;2024-03-02T11:44:48;98760.94;;;18.15;67.31
74722;BME280;63470;49.826;6.740;2024-03-02T11:47:18;98759.04;;;17.94;67.59
74722;BME280;63470;49.826;6.740;2024-03-02T11:49:51;98755.91;;;18.19;67.58
74722;BME280;63470;49.826;6.740;2024-03-02T11:52:19;98747.38;;;19.13;66.43
74722;BME280;63470;49.826;6.740;2024-03-02T11:54:53;98743.05;;;19.81;65.79
74722;BME280;63470;49.826;6.740;2024-03-02T11:57:21;98734.06;;;20.29;65.40
74722;BME280;63470;49.826;6.740;2024-03-02T11:59:53;98734.77;;;20.78;64.93
74722;BME280;63470;49.826;6.740;2024-03-02T12:02:21;98731.96;;;20.95;64.60
74722;BME280;63470;49.826;6.740;2024-03-02T12:04:51;98726.00;;;21.27;64.47
74722;BME280;63470;49.826;6.740;2024-03-02T12:07:24;98722.16;;;21.04;64.71
74722;BME280;63470;49.826;6.740;2024-03-02T12:10:00;98726.19;;;20.17;66.15
74722;BME280;63470;49.826;6.740;2024-03-02T12:12:23;98722.73;;;19.50;66.81
74722;BME280;63470;49.826;6.740;2024-03-02T12:14:55;98714.84;;;18.94;67.66
74722;BME280;63470;49.826;6.740;2024-03-02T12:17:23;98711.42;;;18.26;68.57
74722;BME280;63470;49.826;6.740;2024-03-02T12:19:53;98712.70;;;17.86;68.70
74722;BME280;63470;49.826;6.740;2024-03-02T12:22:24;98711.02;;;17.93;68.25
74722;BME280;63470;49.826;6.740;2024-03-02T12:24:54;98709.50;;;18.21;67.83
74722;BME280;63470;49.826;6.740;2024-03-02T12:27:25;98706.41;;;18.48;67.59
74722;BME280;63470;49.826;6.740;2024-03-02T12:29:56;98701.58;;;18.39;67.70
74722;BME280;63470;49.826;6.740;2024-03-02T12:32:28;98702.23;;;18.32;67.67
74722;BME280;63470;49.826;6.740;2024-03-02T12:34:56;98705.00;;;18.61;67.31
74722;BME280;63470;49.826;6.740;2024-03-02T12:37:28;98701.62;;;19.07;66.84
74722;BME280;63470;49.826;6.740;2024-03-02T12:39:57;98704.89;;;19.13;66.97
74722;BME280;63470;49.826;6.740;2024-03-02T12:42:28;98702.70;;;19.03;67.18
74722;BME280;63470;49.826;6.740;2024-03-02T12:44:58;98701.39;;;19.19;66.79
74722;BME280;63470;49.826;6.740;2024-03-02T12:47:29;98700.17;;;18.99;67.23
74722;BME280;63470;49.826;6.740;2024-03-02T12:50:00;98692.54;;;18.66;67.58
74722;BME280;63470;49.826;6.740;2024-03-02T12:52:30;98690.22;;;18.39;67.90
74722;BME280;63470;49.826;6.740;2024-03-02T12:55:05;98688.65;;;17.96;68.16
74722;BME280;63470;49.826;6.740;2024-03-02T12:57:32;98685.80;;;17.68;68.29
74722;BME280;63470;49.826;6.740;2024-03-02T13:00:04;98689.40;;;17.42;68.34
74722;BME280;63470;49.826;6.740;2024-03-02T13:02:33;98687.22;;;17.61;68.00
74722;BME280;63470;49.826;6.740;2024-03-02T13:05:06;98685.56;;;17.47;68.15
74722;BME280;63470;49.826;6.740;2024-03-02T13:07:34;98680.12;;;17.21;68.20
74722;BME280;63470;49.826;6.740;2024-03-02T13:10:06;98684.04;;;17.06;68.29
74722;BME280;63470;49.826;6.740;2024-03-02T13:12:35;98680.42;;;17.11;68.17
74722;BME280;63470;49.826;6.740;2024-03-02T13:15:09;98681.00;;;17.08;68.10
74722;BME280;63470;49.826;6.740;2024-03-02T13:17:35;98676.18;;;17.51;67.73
74722;BME280;63470;49.826;6.740;2024-03-02T13:20:11;98674.16;;;17.52;67.89
74722;BME280;63470;49.826;6.740;2024-03-02T13:22:36;98675.84;;;17.43;68.04